sensor_id;sensor_type;location;lat;lon;timestamp;P1;durP1;ratioP1;P2;durP2;ratioP2
14903;SDS011;7543;53.148;8.234;2023-10-31T00:00:42;5.93;;;3.20;;
14903;SDS011;7543;53.148;8.234;2023-10-31T00:03:10;3.83;;;3.43;;
14903;SDS011;7543;53.148;8.234;2023-10-31T00:05:39;4.40;;;3.67;;
14903;SDS011;7543;53.148;8.234;2023-10-31T00:08:08;5.33;;;3.77;;
14903;SDS011;7543;53.148;8.234;2023-10-31T00:10:36;4.47;;;3.47;;
14903;SDS011;7543;53.148;8.234;2023-10-31T00:13:05;4.30;;;3.90;;
14903;SDS011;7543;53.148;8.234;2023-10-31T00:15:33;5.40;;;4.00;;
14903;SDS011;7543;53.148;8.234;2023-10-31T00:18:01;7.03;;;3.80;;
14903;SDS011;7543;53.148;8.234;2023-10-31T00:20:30;6.37;;;4.10;;
14903;SDS011;7543;53.148;8.234;2023-10-31T00:22:58;6.07;;;3.80;;
14903;SDS011;7543;53.148;8.234;2023-10-31T00:25:28;5.53;;;3.87;;
14903;SDS011;7543;53.148;8.234;2023-10-31T00:27:56;7.90;;;4.20;;
14903;SDS011;7543;53.148;8.234;2023-10-31T00:30:24;6.47;;;3.80;;
14903;SDS011;7543;53.148;8.234;2023-10-31T00:32:53;4.20;;;3.67;;
14903;SDS011;7543;53.148;8.234;2023-10-31T00:35:21;6.57;;;3.57;;
14903;SDS011;7543;53.148;8.234;2023-10-31T00:37:49;5.53;;;4.00;;
14903;SDS011;7543;53.148;8.234;2023-10-31T00:40:18;5.30;;;4.00;;
14903;SDS011;7543;53.148;8.234;2023-10-31T00:42:48;5.60;;;4.30;;
14903;SDS011;7543;53.148;8.234;2023-10-31T00:45:16;8.43;;;4.70;;
14903;SDS011;7543;53.148;8.234;2023-10-31T00:47:44;4.83;;;4.10;;
14903;SDS011;7543;53.148;8.234;2023-10-31T00:50:13;5.33;;;3.93;;
14903;SDS011;7543;53.148;8.234;2023-10-31T00:52:41;5.40;;;3.77;;
14903;SDS011;7543;53.148;8.234;2023-10-31T00:55:10;5.20;;;4.10;;
14903;SDS011;7543;53.148;8.234;2023-10-31T00:57:38;5.70;;;4.20;;
14903;SDS011;7543;53.148;8.234;2023-10-31T01:00:08;4.73;;;3.83;;
14903;SDS011;7543;53.148;8.234;2023-10-31T01:02:37;6.10;;;4.30;;
14903;SDS011;7543;53.148;8.234;2023-10-31T01:05:06;5.70;;;4.13;;
14903;SDS011;7543;53.148;8.234;2023-10-31T01:07:35;6.20;;;4.57;;
14903;SDS011;7543;53.148;8.234;2023-10-31T01:10:03;5.30;;;4.30;;
14903;SDS011;7543;53.148;8.234;2023-10-31T01:12:32;4.90;;;4.20;;
14903;SDS011;7543;53.148;8.234;2023-10-31T01:15:02;4.93;;;4.17;;
14903;SDS011;7543;53.148;8.234;2023-10-31T01:17:33;6.87;;;4.50;;
14903;SDS011;7543;53.148;8.234;2023-10-31T01:20:01;6.20;;;4.60;;
14903;SDS011;7543;53.148;8.234;2023-10-31T01:22:30;6.73;;;4.30;;
14903;SDS011;7543;53.148;8.234;2023-10-31T01:24:58;5.17;;;4.40;;
14903;SDS011;7543;53.148;8.234;2023-10-31T01:27:27;5.27;;;4.23;;
14903;SDS011;7543;53.148;8.234;2023-10-31T01:29:55;5.20;;;4.20;;
14903;SDS011;7543;53.148;8.234;2023-10-31T01:32:23;6.67;;;4.77;;
14903;SDS011;7543;53.148;8.234;2023-10-31T01:34:53;5.60;;;4.37;;
14903;SDS011;7543;53.148;8.234;2023-10-31T01:37:21;6.10;;;4.90;;
14903;SDS011;7543;53.148;8.234;2023-10-31T01:39:50;6.33;;;4.57;;
14903;SDS011;7543;53.148;8.234;2023-10-31T01:42:18;7.50;;;4.70;;
14903;SDS011;7543;53.148;8.234;2023-10-31T01:44:46;5.93;;;4.47;;
14903;SDS011;7543;53.148;8.234;2023-10-31T01:47:14;6.37;;;4.90;;
14903;SDS011;7543;53.148;8.234;2023-10-31T01:49:43;6.17;;;4.90;;
14903;SDS011;7543;53.148;8.234;2023-10-31T01:52:13;7.07;;;5.23;;
14903;SDS011;7543;53.148;8.234;2023-10-31T01:54:41;7.00;;;5.17;;
14903;SDS011;7543;53.148;8.234;2023-10-31T01:57:10;8.23;;;5.70;;
14903;SDS011;7543;53.148;8.234;2023-10-31T01:59:37;7.07;;;5.57;;
14903;SDS011;7543;53.148;8.234;2023-10-31T02:02:07;8.87;;;5.53;;
14903;SDS011;7543;53.148;8.234;2023-10-31T02:04:35;7.00;;;5.50;;
14903;SDS011;7543;53.148;8.234;2023-10-31T02:07:04;6.40;;;5.30;;
14903;SDS011;7543;53.148;8.234;2023-10-31T02:09:34;6.33;;;5.30;;
14903;SDS011;7543;53.148;8.234;2023-10-31T02:12:02;7.30;;;5.23;;
14903;SDS011;7543;53.148;8.234;2023-10-31T02:14:31;7.07;;;5.67;;
14903;SDS011;7543;53.148;8.234;2023-10-31T02:16:59;8.47;;;5.97;;
14903;SDS011;7543;53.148;8.234;2023-10-31T02:19:28;7.53;;;5.87;;
14903;SDS011;7543;53.148;8.234;2023-10-31T02:21:57;8.67;;;5.33;;
14903;SDS011;7543;53.148;8.234;2023-10-31T02:24:26;8.33;;;6.30;;
14903;SDS011;7543;53.148;8.234;2023-10-31T02:26:54;8.47;;;5.60;;
14903;SDS011;7543;53.148;8.234;2023-10-31T02:29:24;7.37;;;5.47;;
14903;SDS011;7543;53.148;8.234;2023-10-31T02:31:52;7.47;;;5.77;;
14903;SDS011;7543;53.148;8.234;2023-10-31T02:34:21;7.77;;;5.87;;
14903;SDS011;7543;53.148;8.234;2023-10-31T02:36:50;7.13;;;5.40;;
14903;SDS011;7543;53.148;8.234;2023-10-31T02:39:19;7.93;;;5.90;;
14903;SDS011;7543;53.148;8.234;2023-10-31T02:41:48;8.30;;;6.20;;
14903;SDS011;7543;53.148;8.234;2023-10-31T02:44:16;12.60;;;6.93;;
14903;SDS011;7543;53.148;8.234;2023-10-31T02:46:44;9.37;;;6.77;;
14903;SDS011;7543;53.148;8.234;2023-10-31T02:49:13;8.57;;;6.70;;
14903;SDS011;7543;53.148;8.234;2023-10-31T02:51:41;7.00;;;5.83;;
14903;SDS011;7543;53.148;8.234;2023-10-31T02:54:09;8.10;;;5.90;;
14903;SDS011;7543;53.148;8.234;2023-10-31T02:56:39;11.07;;;6.93;;
14903;SDS011;7543;53.148;8.234;2023-10-31T02:59:07;10.17;;;6.73;;
14903;SDS011;7543;53.148;8.234;2023-10-31T03:01:35;9.30;;;7.00;;
14903;SDS011;7543;53.148;8.234;2023-10-31T03:04:04;11.03;;;6.00;;
14903;SDS011;7543;53.148;8.234;2023-10-31T03:06:33;9.77;;;7.10;;
14903;SDS011;7543;53.148;8.234;2023-10-31T03:09:01;9.27;;;7.07;;
14903;SDS011;7543;53.148;8.234;2023-10-31T03:11:29;8.17;;;6.13;;
14903;SDS011;7543;53.148;8.234;2023-10-31T03:14:00;10.23;;;6.83;;
14903;SDS011;7543;53.148;8.234;2023-10-31T03:16:28;9.60;;;6.47;;
14903;SDS011;7543;53.148;8.234;2023-10-31T03:18:57;10.73;;;7.07;;
14903;SDS011;7543;53.148;8.234;2023-10-31T03:21:25;11.70;;;6.90;;
14903;SDS011;7543;53.148;8.234;2023-10-31T03:23:53;9.17;;;6.83;;
14903;SDS011;7543;53.148;8.234;2023-10-31T03:26:22;10.43;;;7.50;;
14903;SDS011;7543;53.148;8.234;2023-10-31T03:28:50;10.70;;;7.53;;
14903;SDS011;7543;53.148;8.234;2023-10-31T03:31:25;9.87;;;7.07;;
14903;SDS011;7543;53.148;8.234;2023-10-31T03:33:53;10.00;;;7.07;;
14903;SDS011;7543;53.148;8.234;2023-10-31T03:36:22;10.43;;;6.80;;
14903;SDS011;7543;53.148;8.234;2023-10-31T03:38:50;10.20;;;6.23;;
14903;SDS011;7543;53.148;8.234;2023-10-31T03:41:19;9.30;;;6.77;;
14903;SDS011;7543;53.148;8.234;2023-10-31T03:43:47;9.13;;;6.63;;
14903;SDS011;7543;53.148;8.234;2023-10-31T03:46:15;11.33;;;7.10;;
14903;SDS011;7543;53.148;8.234;2023-10-31T03:48:45;8.80;;;6.00;;
14903;SDS011;7543;53.148;8.234;2023-10-31T03:51:13;8.57;;;6.10;;
14903;SDS011;7543;53.148;8.234;2023-10-31T03:53:42;9.70;;;6.40;;
14903;SDS011;7543;53.148;8.234;2023-10-31T03:56:10;10.50;;;6.20;;
14903;SDS011;7543;53.148;8.234;2023-10-31T03:58:40;9.00;;;6.43;;
14903;SDS011;7543;53.148;8.234;2023-10-31T04:01:09;9.93;;;6.87;;
14903;SDS011;7543;53.148;8.234;2023-10-31T04:03:37;11.90;;;7.03;;
14903;SDS011;7543;53.148;8.234;2023-10-31T04:06:08;9.77;;;6.70;;
14903;SDS011;7543;53.148;8.234;2023-10-31T04:08:37;11.63;;;6.83;;
14903;SDS011;7543;53.148;8.234;2023-10-31T04:11:05;8.70;;;6.60;;
14903;SDS011;7543;53.148;8.234;2023-10-31T04:13:33;8.23;;;5.90;;
14903;SDS011;7543;53.148;8.234;2023-10-31T04:16:01;10.03;;;6.67;;
14903;SDS011;7543;53.148;8.234;2023-10-31T04:18:30;9.47;;;6.80;;
14903;SDS011;7543;53.148;8.234;2023-10-31T04:20:59;9.13;;;6.30;;
14903;SDS011;7543;53.148;8.234;2023-10-31T04:23:28;10.70;;;7.17;;
14903;SDS011;7543;53.148;8.234;2023-10-31T04:25:57;9.67;;;6.83;;
14903;SDS011;7543;53.148;8.234;2023-10-31T04:28:25;10.93;;;6.57;;
14903;SDS011;7543;53.148;8.234;2023-10-31T04:30:53;10.97;;;6.83;;
14903;SDS011;7543;53.148;8.234;2023-10-31T04:33:22;9.57;;;6.00;;
14903;SDS011;7543;53.148;8.234;2023-10-31T04:35:50;9.87;;;6.50;;
14903;SDS011;7543;53.148;8.234;2023-10-31T04:38:18;11.67;;;6.37;;
14903;SDS011;7543;53.148;8.234;2023-10-31T04:40:48;9.27;;;6.33;;
14903;SDS011;7543;53.148;8.234;2023-10-31T04:43:16;8.30;;;5.20;;
14903;SDS011;7543;53.148;8.234;2023-10-31T04:45:45;10.47;;;5.33;;
14903;SDS011;7543;53.148;8.234;2023-10-31T04:48:13;9.00;;;5.97;;
14903;SDS011;7543;53.148;8.234;2023-10-31T04:50:41;8.87;;;6.10;;
14903;SDS011;7543;53.148;8.234;2023-10-31T04:53:10;7.37;;;5.63;;
14903;SDS011;7543;53.148;8.234;2023-10-31T04:55:38;6.90;;;5.27;;
14903;SDS011;7543;53.148;8.234;2023-10-31T04:58:08;7.30;;;5.10;;
14903;SDS011;7543;53.148;8.234;2023-10-31T05:00:36;9.23;;;5.43;;
14903;SDS011;7543;53.148;8.234;2023-10-31T05:03:04;3.40;;;2.60;;
14903;SDS011;7543;53.148;8.234;2023-10-31T05:05:33;2.63;;;1.40;;
14903;SDS011;7543;53.148;8.234;2023-10-31T05:08:01;1.13;;;0.90;;
14903;SDS011;7543;53.148;8.234;2023-10-31T05:10:30;0.97;;;0.80;;
14903;SDS011;7543;53.148;8.234;2023-10-31T05:13:00;0.87;;;0.70;;
14903;SDS011;7543;53.148;8.234;2023-10-31T05:15:30;1.50;;;0.60;;
14903;SDS011;7543;53.148;8.234;2023-10-31T05:17:58;0.50;;;0.50;;
14903;SDS011;7543;53.148;8.234;2023-10-31T05:20:27;0.87;;;0.60;;
14903;SDS011;7543;53.148;8.234;2023-10-31T05:22:55;0.50;;;0.40;;
14903;SDS011;7543;53.148;8.234;2023-10-31T05:25:24;0.27;;;0.27;;
14903;SDS011;7543;53.148;8.234;2023-10-31T05:27:52;0.80;;;0.60;;
14903;SDS011;7543;53.148;8.234;2023-10-31T05:30:20;0.57;;;0.40;;
14903;SDS011;7543;53.148;8.234;2023-10-31T05:32:51;0.27;;;0.23;;
14903;SDS011;7543;53.148;8.234;2023-10-31T05:35:20;0.53;;;0.50;;
14903;SDS011;7543;53.148;8.234;2023-10-31T05:37:48;0.77;;;0.50;;
14903;SDS011;7543;53.148;8.234;2023-10-31T05:40:17;0.60;;;0.40;;
14903;SDS011;7543;53.148;8.234;2023-10-31T05:42:45;2.13;;;0.30;;
14903;SDS011;7543;53.148;8.234;2023-10-31T05:45:14;1.37;;;0.40;;
14903;SDS011;7543;53.148;8.234;2023-10-31T05:47:42;4.33;;;0.60;;
14903;SDS011;7543;53.148;8.234;2023-10-31T05:50:12;0.63;;;0.30;;
14903;SDS011;7543;53.148;8.234;2023-10-31T05:52:40;1.23;;;0.50;;
14903;SDS011;7543;53.148;8.234;2023-10-31T05:55:09;0.30;;;0.20;;
14903;SDS011;7543;53.148;8.234;2023-10-31T05:57:37;0.60;;;0.47;;
14903;SDS011;7543;53.148;8.234;2023-10-31T06:00:06;0.93;;;0.50;;
14903;SDS011;7543;53.148;8.234;2023-10-31T06:02:41;0.40;;;0.40;;
14903;SDS011;7543;53.148;8.234;2023-10-31T06:05:08;0.63;;;0.50;;
14903;SDS011;7543;53.148;8.234;2023-10-31T06:07:38;0.40;;;0.40;;
14903;SDS011;7543;53.148;8.234;2023-10-31T06:10:07;1.03;;;0.70;;
14903;SDS011;7543;53.148;8.234;2023-10-31T06:12:36;1.90;;;0.80;;
14903;SDS011;7543;53.148;8.234;2023-10-31T06:15:05;1.07;;;0.70;;
14903;SDS011;7543;53.148;8.234;2023-10-31T06:17:35;1.97;;;0.90;;
14903;SDS011;7543;53.148;8.234;2023-10-31T06:20:04;2.70;;;0.83;;
14903;SDS011;7543;53.148;8.234;2023-10-31T06:22:34;2.27;;;0.63;;
14903;SDS011;7543;53.148;8.234;2023-10-31T06:25:04;1.37;;;0.70;;
14903;SDS011;7543;53.148;8.234;2023-10-31T06:27:33;2.10;;;0.90;;
14903;SDS011;7543;53.148;8.234;2023-10-31T06:30:01;1.30;;;0.87;;
14903;SDS011;7543;53.148;8.234;2023-10-31T06:32:30;0.80;;;0.60;;
14903;SDS011;7543;53.148;8.234;2023-10-31T06:34:58;1.93;;;0.70;;
14903;SDS011;7543;53.148;8.234;2023-10-31T06:37:26;0.80;;;0.53;;
14903;SDS011;7543;53.148;8.234;2023-10-31T06:39:55;1.73;;;0.87;;
14903;SDS011;7543;53.148;8.234;2023-10-31T06:42:25;0.77;;;0.70;;
14903;SDS011;7543;53.148;8.234;2023-10-31T06:44:53;2.63;;;0.70;;
14903;SDS011;7543;53.148;8.234;2023-10-31T06:47:21;1.20;;;0.70;;
14903;SDS011;7543;53.148;8.234;2023-10-31T06:49:50;0.90;;;0.70;;
14903;SDS011;7543;53.148;8.234;2023-10-31T06:52:18;1.33;;;0.90;;
14903;SDS011;7543;53.148;8.234;2023-10-31T06:54:47;1.10;;;0.80;;
14903;SDS011;7543;53.148;8.234;2023-10-31T06:57:16;1.47;;;0.80;;
14903;SDS011;7543;53.148;8.234;2023-10-31T06:59:46;0.80;;;0.53;;
14903;SDS011;7543;53.148;8.234;2023-10-31T07:02:15;0.93;;;0.73;;
14903;SDS011;7543;53.148;8.234;2023-10-31T07:04:43;1.00;;;0.70;;
14903;SDS011;7543;53.148;8.234;2023-10-31T07:07:11;1.57;;;0.80;;
14903;SDS011;7543;53.148;8.234;2023-10-31T07:09:40;2.00;;;0.90;;
14903;SDS011;7543;53.148;8.234;2023-10-31T07:12:08;1.40;;;0.90;;
14903;SDS011;7543;53.148;8.234;2023-10-31T07:14:37;1.80;;;0.90;;
14903;SDS011;7543;53.148;8.234;2023-10-31T07:17:07;0.93;;;0.80;;
14903;SDS011;7543;53.148;8.234;2023-10-31T07:19:35;0.80;;;0.80;;
14903;SDS011;7543;53.148;8.234;2023-10-31T07:22:04;1.73;;;1.07;;
14903;SDS011;7543;53.148;8.234;2023-10-31T07:24:32;2.00;;;0.97;;
14903;SDS011;7543;53.148;8.234;2023-10-31T07:27:01;0.80;;;0.80;;
14903;SDS011;7543;53.148;8.234;2023-10-31T07:29:29;1.13;;;0.80;;
14903;SDS011;7543;53.148;8.234;2023-10-31T07:31:57;2.30;;;0.80;;
14903;SDS011;7543;53.148;8.234;2023-10-31T07:34:28;1.33;;;0.70;;
14903;SDS011;7543;53.148;8.234;2023-10-31T07:36:57;1.17;;;0.80;;
14903;SDS011;7543;53.148;8.234;2023-10-31T07:39:25;3.70;;;0.60;;
14903;SDS011;7543;53.148;8.234;2023-10-31T07:41:53;0.70;;;0.63;;
14903;SDS011;7543;53.148;8.234;2023-10-31T07:44:22;0.60;;;0.50;;
14903;SDS011;7543;53.148;8.234;2023-10-31T07:46:51;2.10;;;0.80;;
14903;SDS011;7543;53.148;8.234;2023-10-31T07:49:21;3.33;;;0.60;;
14903;SDS011;7543;53.148;8.234;2023-10-31T07:51:50;1.33;;;0.70;;
14903;SDS011;7543;53.148;8.234;2023-10-31T07:54:19;7.27;;;1.10;;
14903;SDS011;7543;53.148;8.234;2023-10-31T07:56:48;1.20;;;0.80;;
14903;SDS011;7543;53.148;8.234;2023-10-31T07:59:16;3.67;;;0.53;;
14903;SDS011;7543;53.148;8.234;2023-10-31T08:01:44;0.43;;;0.40;;
14903;SDS011;7543;53.148;8.234;2023-10-31T08:04:14;2.33;;;0.50;;
14903;SDS011;7543;53.148;8.234;2023-10-31T08:06:44;0.87;;;0.60;;
14903;SDS011;7543;53.148;8.234;2023-10-31T08:09:14;2.60;;;0.70;;
14903;SDS011;7543;53.148;8.234;2023-10-31T08:11:43;0.63;;;0.40;;
14903;SDS011;7543;53.148;8.234;2023-10-31T08:14:11;1.30;;;0.50;;
14903;SDS011;7543;53.148;8.234;2023-10-31T08:16:40;1.40;;;0.50;;
14903;SDS011;7543;53.148;8.234;2023-10-31T08:19:08;0.30;;;0.30;;
14903;SDS011;7543;53.148;8.234;2023-10-31T08:21:36;2.27;;;0.53;;
14903;SDS011;7543;53.148;8.234;2023-10-31T08:24:05;2.07;;;0.73;;
14903;SDS011;7543;53.148;8.234;2023-10-31T08:26:35;0.70;;;0.60;;
14903;SDS011;7543;53.148;8.234;2023-10-31T08:29:04;0.77;;;0.50;;
14903;SDS011;7543;53.148;8.234;2023-10-31T08:31:32;3.40;;;0.53;;
14903;SDS011;7543;53.148;8.234;2023-10-31T08:34:00;0.60;;;0.40;;
14903;SDS011;7543;53.148;8.234;2023-10-31T08:36:29;1.93;;;0.40;;
14903;SDS011;7543;53.148;8.234;2023-10-31T08:38:57;0.77;;;0.60;;
14903;SDS011;7543;53.148;8.234;2023-10-31T08:41:26;1.13;;;0.50;;
14903;SDS011;7543;53.148;8.234;2023-10-31T08:43:55;0.87;;;0.60;;
14903;SDS011;7543;53.148;8.234;2023-10-31T08:46:25;1.00;;;0.60;;
14903;SDS011;7543;53.148;8.234;2023-10-31T08:48:53;0.67;;;0.50;;
14903;SDS011;7543;53.148;8.234;2023-10-31T08:51:21;1.03;;;0.60;;
14903;SDS011;7543;53.148;8.234;2023-10-31T08:53:50;0.73;;;0.50;;
14903;SDS011;7543;53.148;8.234;2023-10-31T08:56:18;0.67;;;0.50;;
14903;SDS011;7543;53.148;8.234;2023-10-31T08:58:47;0.63;;;0.50;;
14903;SDS011;7543;53.148;8.234;2023-10-31T09:01:17;2.10;;;0.80;;
14903;SDS011;7543;53.148;8.234;2023-10-31T09:03:46;1.27;;;0.63;;
14903;SDS011;7543;53.148;8.234;2023-10-31T09:06:14;0.77;;;0.70;;
14903;SDS011;7543;53.148;8.234;2023-10-31T09:08:42;1.53;;;0.80;;
14903;SDS011;7543;53.148;8.234;2023-10-31T09:11:11;1.50;;;0.83;;
14903;SDS011;7543;53.148;8.234;2023-10-31T09:13:39;2.03;;;0.87;;
14903;SDS011;7543;53.148;8.234;2023-10-31T09:16:08;1.10;;;0.90;;
14903;SDS011;7543;53.148;8.234;2023-10-31T09:18:38;0.97;;;0.77;;
14903;SDS011;7543;53.148;8.234;2023-10-31T09:21:06;2.80;;;1.00;;
14903;SDS011;7543;53.148;8.234;2023-10-31T09:23:35;0.83;;;0.80;;
14903;SDS011;7543;53.148;8.234;2023-10-31T09:26:04;3.13;;;0.70;;
14903;SDS011;7543;53.148;8.234;2023-10-31T09:28:32;1.43;;;1.00;;
14903;SDS011;7543;53.148;8.234;2023-10-31T09:31:00;2.00;;;1.00;;
14903;SDS011;7543;53.148;8.234;2023-10-31T09:33:29;2.43;;;1.00;;
14903;SDS011;7543;53.148;8.234;2023-10-31T09:35:59;1.20;;;1.10;;
14903;SDS011;7543;53.148;8.234;2023-10-31T09:38:28;1.00;;;0.90;;
14903;SDS011;7543;53.148;8.234;2023-10-31T09:40:57;0.97;;;0.80;;
14903;SDS011;7543;53.148;8.234;2023-10-31T09:43:25;1.90;;;1.13;;
14903;SDS011;7543;53.148;8.234;2023-10-31T09:45:53;1.37;;;0.90;;
14903;SDS011;7543;53.148;8.234;2023-10-31T09:48:22;1.97;;;0.90;;
14903;SDS011;7543;53.148;8.234;2023-10-31T09:50:51;1.57;;;1.00;;
14903;SDS011;7543;53.148;8.234;2023-10-31T09:53:21;1.73;;;1.00;;
14903;SDS011;7543;53.148;8.234;2023-10-31T09:55:50;2.20;;;1.20;;
14903;SDS011;7543;53.148;8.234;2023-10-31T09:58:19;1.60;;;0.80;;
14903;SDS011;7543;53.148;8.234;2023-10-31T10:00:48;1.70;;;1.13;;
14903;SDS011;7543;53.148;8.234;2023-10-31T10:03:16;2.10;;;1.00;;
14903;SDS011;7543;53.148;8.234;2023-10-31T10:05:45;2.97;;;1.03;;
14903;SDS011;7543;53.148;8.234;2023-10-31T10:08:14;2.77;;;0.73;;
14903;SDS011;7543;53.148;8.234;2023-10-31T10:10:44;2.00;;;0.97;;
14903;SDS011;7543;53.148;8.234;2023-10-31T10:13:12;1.63;;;0.90;;
14903;SDS011;7543;53.148;8.234;2023-10-31T10:15:44;2.60;;;1.00;;
14903;SDS011;7543;53.148;8.234;2023-10-31T10:18:23;3.37;;;1.10;;
14903;SDS011;7543;53.148;8.234;2023-10-31T10:20:56;1.03;;;0.90;;
14903;SDS011;7543;53.148;8.234;2023-10-31T10:23:25;1.87;;;1.10;;
14903;SDS011;7543;53.148;8.234;2023-10-31T10:25:56;1.33;;;0.77;;
14903;SDS011;7543;53.148;8.234;2023-10-31T10:28:26;2.53;;;1.20;;
14903;SDS011;7543;53.148;8.234;2023-10-31T10:30:56;2.00;;;0.80;;
14903;SDS011;7543;53.148;8.234;2023-10-31T10:33:24;0.83;;;0.70;;
14903;SDS011;7543;53.148;8.234;2023-10-31T10:35:52;3.07;;;0.90;;
14903;SDS011;7543;53.148;8.234;2023-10-31T10:38:23;1.73;;;0.90;;
14903;SDS011;7543;53.148;8.234;2023-10-31T10:40:51;3.87;;;0.90;;
14903;SDS011;7543;53.148;8.234;2023-10-31T10:43:23;2.43;;;1.00;;
14903;SDS011;7543;53.148;8.234;2023-10-31T10:45:53;1.77;;;1.00;;
14903;SDS011;7543;53.148;8.234;2023-10-31T10:48:24;1.27;;;1.00;;
14903;SDS011;7543;53.148;8.234;2023-10-31T10:50:57;2.27;;;0.83;;
14903;SDS011;7543;53.148;8.234;2023-10-31T10:53:29;1.70;;;0.90;;
14903;SDS011;7543;53.148;8.234;2023-10-31T10:55:59;1.73;;;1.00;;
14903;SDS011;7543;53.148;8.234;2023-10-31T10:58:33;4.33;;;0.93;;
14903;SDS011;7543;53.148;8.234;2023-10-31T11:01:02;4.10;;;0.97;;
14903;SDS011;7543;53.148;8.234;2023-10-31T11:03:31;1.63;;;0.90;;
14903;SDS011;7543;53.148;8.234;2023-10-31T11:06:00;1.63;;;0.80;;
14903;SDS011;7543;53.148;8.234;2023-10-31T11:08:32;1.83;;;0.70;;
14903;SDS011;7543;53.148;8.234;2023-10-31T11:11:00;1.33;;;0.80;;
14903;SDS011;7543;53.148;8.234;2023-10-31T11:13:29;1.30;;;0.90;;
14903;SDS011;7543;53.148;8.234;2023-10-31T11:16:02;1.60;;;0.73;;
14903;SDS011;7543;53.148;8.234;2023-10-31T11:18:34;6.17;;;0.97;;
14903;SDS011;7543;53.148;8.234;2023-10-31T11:21:03;1.87;;;0.70;;
14903;SDS011;7543;53.148;8.234;2023-10-31T11:23:32;2.57;;;0.80;;
14903;SDS011;7543;53.148;8.234;2023-10-31T11:26:00;1.83;;;0.43;;
14903;SDS011;7543;53.148;8.234;2023-10-31T11:28:28;1.40;;;0.83;;
14903;SDS011;7543;53.148;8.234;2023-10-31T11:31:02;1.70;;;0.70;;
14903;SDS011;7543;53.148;8.234;2023-10-31T11:33:31;4.27;;;0.83;;
14903;SDS011;7543;53.148;8.234;2023-10-31T11:35:59;0.70;;;0.70;;
14903;SDS011;7543;53.148;8.234;2023-10-31T11:38:30;1.83;;;0.63;;
14903;SDS011;7543;53.148;8.234;2023-10-31T11:41:01;2.47;;;0.77;;
14903;SDS011;7543;53.148;8.234;2023-10-31T11:43:36;3.57;;;0.60;;
14903;SDS011;7543;53.148;8.234;2023-10-31T11:46:20;1.10;;;0.70;;
14903;SDS011;7543;53.148;8.234;2023-10-31T11:48:51;2.70;;;0.60;;
14903;SDS011;7543;53.148;8.234;2023-10-31T11:51:21;0.77;;;0.43;;
14903;SDS011;7543;53.148;8.234;2023-10-31T11:53:49;0.57;;;0.40;;
14903;SDS011;7543;53.148;8.234;2023-10-31T11:56:21;1.97;;;0.40;;
14903;SDS011;7543;53.148;8.234;2023-10-31T11:58:57;3.23;;;0.33;;
14903;SDS011;7543;53.148;8.234;2023-10-31T12:01:27;0.70;;;0.30;;
14903;SDS011;7543;53.148;8.234;2023-10-31T12:03:56;1.00;;;0.50;;
14903;SDS011;7543;53.148;8.234;2023-10-31T12:06:24;2.13;;;0.57;;
14903;SDS011;7543;53.148;8.234;2023-10-31T12:08:53;2.30;;;0.60;;
14903;SDS011;7543;53.148;8.234;2023-10-31T12:11:21;0.50;;;0.30;;
14903;SDS011;7543;53.148;8.234;2023-10-31T12:13:52;2.43;;;0.30;;
14903;SDS011;7543;53.148;8.234;2023-10-31T12:16:22;0.50;;;0.40;;
14903;SDS011;7543;53.148;8.234;2023-10-31T12:18:57;2.20;;;0.53;;
14903;SDS011;7543;53.148;8.234;2023-10-31T12:21:39;0.50;;;0.50;;
14903;SDS011;7543;53.148;8.234;2023-10-31T12:24:10;1.73;;;0.60;;
14903;SDS011;7543;53.148;8.234;2023-10-31T12:26:40;0.43;;;0.40;;
14903;SDS011;7543;53.148;8.234;2023-10-31T12:29:09;0.90;;;0.50;;
14903;SDS011;7543;53.148;8.234;2023-10-31T12:31:39;2.77;;;0.80;;
14903;SDS011;7543;53.148;8.234;2023-10-31T12:34:10;0.93;;;0.60;;
14903;SDS011;7543;53.148;8.234;2023-10-31T12:36:38;4.07;;;0.93;;
14903;SDS011;7543;53.148;8.234;2023-10-31T12:39:09;1.10;;;0.60;;
14903;SDS011;7543;53.148;8.234;2023-10-31T12:41:39;1.20;;;0.40;;
14903;SDS011;7543;53.148;8.234;2023-10-31T12:44:08;1.70;;;0.50;;
14903;SDS011;7543;53.148;8.234;2023-10-31T12:46:38;0.67;;;0.47;;
14903;SDS011;7543;53.148;8.234;2023-10-31T12:49:16;0.40;;;0.40;;
14903;SDS011;7543;53.148;8.234;2023-10-31T12:51:58;1.80;;;0.50;;
14903;SDS011;7543;53.148;8.234;2023-10-31T12:54:27;0.23;;;0.23;;
14903;SDS011;7543;53.148;8.234;2023-10-31T12:56:58;1.20;;;0.50;;
14903;SDS011;7543;53.148;8.234;2023-10-31T12:59:27;0.90;;;0.50;;
14903;SDS011;7543;53.148;8.234;2023-10-31T13:01:59;0.67;;;0.40;;
14903;SDS011;7543;53.148;8.234;2023-10-31T13:04:29;0.57;;;0.40;;
14903;SDS011;7543;53.148;8.234;2023-10-31T13:06:58;1.27;;;0.50;;
14903;SDS011;7543;53.148;8.234;2023-10-31T13:09:29;0.93;;;0.60;;
14903;SDS011;7543;53.148;8.234;2023-10-31T13:11:59;2.47;;;0.80;;
14903;SDS011;7543;53.148;8.234;2023-10-31T13:14:28;2.17;;;0.80;;
14903;SDS011;7543;53.148;8.234;2023-10-31T13:16:57;0.70;;;0.60;;
14903;SDS011;7543;53.148;8.234;2023-10-31T13:19:25;1.10;;;0.50;;
14903;SDS011;7543;53.148;8.234;2023-10-31T13:21:55;3.97;;;0.80;;
14903;SDS011;7543;53.148;8.234;2023-10-31T13:24:23;1.33;;;0.70;;
14903;SDS011;7543;53.148;8.234;2023-10-31T13:26:52;2.23;;;0.60;;
14903;SDS011;7543;53.148;8.234;2023-10-31T13:29:20;4.03;;;0.60;;
14903;SDS011;7543;53.148;8.234;2023-10-31T13:31:52;1.13;;;0.53;;
14903;SDS011;7543;53.148;8.234;2023-10-31T13:34:20;2.10;;;0.60;;
14903;SDS011;7543;53.148;8.234;2023-10-31T13:36:49;1.07;;;0.70;;
14903;SDS011;7543;53.148;8.234;2023-10-31T13:39:19;2.90;;;0.77;;
14903;SDS011;7543;53.148;8.234;2023-10-31T13:41:48;1.17;;;0.73;;
14903;SDS011;7543;53.148;8.234;2023-10-31T13:44:17;1.27;;;0.60;;
14903;SDS011;7543;53.148;8.234;2023-10-31T13:46:45;3.90;;;0.90;;
14903;SDS011;7543;53.148;8.234;2023-10-31T13:49:14;1.50;;;0.70;;
14903;SDS011;7543;53.148;8.234;2023-10-31T13:51:42;1.37;;;0.80;;
14903;SDS011;7543;53.148;8.234;2023-10-31T13:54:10;1.53;;;0.80;;
14903;SDS011;7543;53.148;8.234;2023-10-31T13:56:40;1.43;;;0.77;;
14903;SDS011;7543;53.148;8.234;2023-10-31T13:59:08;1.93;;;0.80;;
14903;SDS011;7543;53.148;8.234;2023-10-31T14:01:37;1.10;;;0.70;;
14903;SDS011;7543;53.148;8.234;2023-10-31T14:04:06;1.60;;;0.57;;
14903;SDS011;7543;53.148;8.234;2023-10-31T14:06:38;2.57;;;1.03;;
14903;SDS011;7543;53.148;8.234;2023-10-31T14:09:10;3.73;;;0.83;;
14903;SDS011;7543;53.148;8.234;2023-10-31T14:11:39;3.30;;;0.80;;
14903;SDS011;7543;53.148;8.234;2023-10-31T14:14:09;2.57;;;0.80;;
14903;SDS011;7543;53.148;8.234;2023-10-31T14:16:39;1.90;;;0.60;;
14903;SDS011;7543;53.148;8.234;2023-10-31T14:19:08;1.73;;;0.57;;
14903;SDS011;7543;53.148;8.234;2023-10-31T14:21:39;2.10;;;0.67;;
14903;SDS011;7543;53.148;8.234;2023-10-31T14:24:08;3.77;;;0.70;;
14903;SDS011;7543;53.148;8.234;2023-10-31T14:26:37;1.03;;;0.63;;
14903;SDS011;7543;53.148;8.234;2023-10-31T14:29:08;3.17;;;0.70;;
14903;SDS011;7543;53.148;8.234;2023-10-31T14:31:38;2.23;;;0.67;;
14903;SDS011;7543;53.148;8.234;2023-10-31T14:34:07;2.83;;;0.80;;
14903;SDS011;7543;53.148;8.234;2023-10-31T14:36:36;2.27;;;0.83;;
14903;SDS011;7543;53.148;8.234;2023-10-31T14:39:04;3.10;;;0.67;;
14903;SDS011;7543;53.148;8.234;2023-10-31T14:41:33;2.97;;;0.60;;
14903;SDS011;7543;53.148;8.234;2023-10-31T14:44:01;2.53;;;0.90;;
14903;SDS011;7543;53.148;8.234;2023-10-31T14:46:31;3.37;;;0.60;;
14903;SDS011;7543;53.148;8.234;2023-10-31T14:48:59;5.57;;;0.90;;
14903;SDS011;7543;53.148;8.234;2023-10-31T14:51:28;5.30;;;0.90;;
14903;SDS011;7543;53.148;8.234;2023-10-31T14:53:56;3.13;;;1.00;;
14903;SDS011;7543;53.148;8.234;2023-10-31T14:56:25;2.10;;;0.90;;
14903;SDS011;7543;53.148;8.234;2023-10-31T14:58:56;2.17;;;0.90;;
14903;SDS011;7543;53.148;8.234;2023-10-31T15:01:24;4.93;;;1.00;;
14903;SDS011;7543;53.148;8.234;2023-10-31T15:03:57;1.80;;;0.97;;
14903;SDS011;7543;53.148;8.234;2023-10-31T15:06:26;2.80;;;1.10;;
14903;SDS011;7543;53.148;8.234;2023-10-31T15:08:53;5.03;;;1.07;;
14903;SDS011;7543;53.148;8.234;2023-10-31T15:11:21;2.70;;;1.00;;